Terminal Aerodrome Forecast
Issued by NWS Atlanta, GA

Home | Current Version | Previous Version | Text Only | Print | Product List | Glossary On
Versions: 1 2 3 4 5 6 7 8 9 10 11 12 13 14 15 16 17 18 19 20 21 22 23 24 25 26 27 28 29 30 31 32 33 34 35 36 37 38 39 40 41 42
000
FTUS42 KFFC 230700 AAA
TAFATL
TAF AMD
KATL 230735Z 2308/2412 31005KT P6SM FEW250
     FM231500 32008KT P6SM FEW040
     FM231800 33009KT P6SM VCSH SCT050 PROB30 2319/2323 -TSRA
      BKN035CB
     FM240200 34007KT P6SM VCSH SCT070 SCT120
     FM240800 02006KT P6SM SCT035 BKN070=

USA.gov is the U.S. government's official web portal to all federal, state and local government web resources and services.